PRIVATE WETTERSTATION BILLIGHEIM-ALLFELD                       ZURCK
Wetterdaten: Donnerstag, 06.04.2017
Datum Zeit Temp. A. Temp. A. min Temp. A. max Feuchte A. Luftdruck Regen Wind Richtung Richtung Sonnenschein ET Solar Taupunkt Windchill Windben Empfang
06.04.2017 00:00 8,2 C 8,2 C 8,3 C 76 % 1022,0 hPa 0,0 l/m 3,2 km/h (1 Bft) NW 315 0 min 0,025 mm 0 W/m 4,2 C 8,2 C 17,7 km/h (3 Bft) 100 %
06.04.2017 00:10 8,1 C 8,1 C 8,2 C 76 % 1021,9 hPa 0,0 l/m 1,6 km/h (1 Bft) NW 315 0 min 0,000 mm 0 W/m 4,1 C 8,1 C 12,9 km/h (3 Bft) 100 %
06.04.2017 00:20 8,0 C 7,9 C 8,1 C 76 % 1021,9 hPa 0,0 l/m 3,2 km/h (1 Bft) NW 315 0 min 0,000 mm 0 W/m 4,0 C 8,0 C 14,5 km/h (3 Bft) 100 %
06.04.2017 00:30 7,9 C 7,9 C 8,0 C 76 % 1021,9 hPa 0,0 l/m 1,6 km/h (1 Bft) N-NW 337 0 min 0,000 mm 0 W/m 3,9 C 7,9 C 14,5 km/h (3 Bft) 100 %
06.04.2017 00:40 7,8 C 7,8 C 7,9 C 77 % 1022,0 hPa 0,0 l/m 1,6 km/h (1 Bft) N-NW 337 0 min 0,000 mm 0 W/m 4,0 C 7,8 C 8,0 km/h (2 Bft) 100 %
06.04.2017 00:50 7,7 C 7,7 C 7,8 C 77 % 1022,1 hPa 0,0 l/m 1,6 km/h (1 Bft) N-NW 337 0 min 0,000 mm 0 W/m 3,9 C 7,7 C 12,9 km/h (3 Bft) 100 %
06.04.2017 01:00 7,6 C 7,6 C 7,7 C 78 % 1022,0 hPa 0,0 l/m 1,6 km/h (1 Bft) N-NW 337 0 min 0,025 mm 0 W/m 4,0 C 7,6 C 9,7 km/h (2 Bft) 100 %
06.04.2017 01:10 7,5 C 7,5 C 7,6 C 78 % 1022,0 hPa 0,0 l/m 3,2 km/h (1 Bft) N-NW 337 0 min 0,000 mm 0 W/m 3,9 C 7,5 C 9,7 km/h (2 Bft) 100 %
06.04.2017 01:20 7,4 C 7,4 C 7,5 C 78 % 1022,1 hPa 0,0 l/m 0,0 km/h (0 Bft) N 360 0 min 0,000 mm 0 W/m 3,8 C 7,4 C 6,4 km/h (2 Bft) 100 %
06.04.2017 01:30 7,3 C 7,3 C 7,4 C 79 % 1022,1 hPa 0,0 l/m 0,0 km/h (0 Bft) N-NW 337 0 min 0,000 mm 0 W/m 3,9 C 7,3 C 3,2 km/h (1 Bft) 100 %
06.04.2017 01:40 7,2 C 7,2 C 7,3 C 79 % 1022,1 hPa 0,0 l/m 0,0 km/h (0 Bft) N-NW 337 0 min 0,000 mm 0 W/m 3,8 C 7,2 C 4,8 km/h (1 Bft) 100 %
06.04.2017 01:50 7,1 C 7,1 C 7,2 C 80 % 1022,0 hPa 0,0 l/m 0,0 km/h (0 Bft) N-NW 337 0 min 0,000 mm 0 W/m 3,9 C 7,1 C 8,0 km/h (2 Bft) 100 %
06.04.2017 02:00 7,1 C 7,1 C 7,1 C 79 % 1022,1 hPa 0,0 l/m 1,6 km/h (1 Bft) N-NW 337 0 min 0,025 mm 0 W/m 3,7 C 7,1 C 8,0 km/h (2 Bft) 100 %
06.04.2017 02:10 7,1 C 7,1 C 7,1 C 78 % 1022,1 hPa 0,0 l/m 1,6 km/h (1 Bft) N-NW 337 0 min 0,000 mm 0 W/m 3,5 C 7,1 C 11,3 km/h (2 Bft) 100 %
06.04.2017 02:20 7,0 C 7,0 C 7,1 C 77 % 1022,3 hPa 0,0 l/m 1,6 km/h (1 Bft) N-NW 337 0 min 0,000 mm 0 W/m 3,2 C 7,0 C 14,5 km/h (3 Bft) 100 %
06.04.2017 02:30 6,9 C 6,9 C 7,0 C 76 % 1022,4 hPa 0,0 l/m 0,0 km/h (0 Bft) N 360 0 min 0,000 mm 0 W/m 3,0 C 6,9 C 12,9 km/h (3 Bft) 100 %
06.04.2017 02:40 6,8 C 6,8 C 6,9 C 76 % 1022,5 hPa 0,0 l/m 3,2 km/h (1 Bft) N-NW 337 0 min 0,000 mm 0 W/m 2,9 C 6,8 C 14,5 km/h (3 Bft) 100 %
06.04.2017 02:50 6,7 C 6,7 C 6,8 C 76 % 1022,5 hPa 0,0 l/m 3,2 km/h (1 Bft) N-NW 337 0 min 0,000 mm 0 W/m 2,8 C 6,7 C 12,9 km/h (3 Bft) 100 %
06.04.2017 03:00 6,5 C 6,5 C 6,7 C 76 % 1022,5 hPa 0,0 l/m 0,0 km/h (0 Bft) N 360 0 min 0,025 mm 0 W/m 2,6 C 6,5 C 8,0 km/h (2 Bft) 100 %
06.04.2017 03:10 6,3 C 6,3 C 6,5 C 76 % 1022,5 hPa 0,0 l/m 0,0 km/h (0 Bft) NO 45 0 min 0,000 mm 0 W/m 2,4 C 6,3 C 9,7 km/h (2 Bft) 100 %
06.04.2017 03:20 5,9 C 5,9 C 6,3 C 77 % 1022,5 hPa 0,0 l/m 0,0 km/h (0 Bft) N-NO 22 0 min 0,000 mm 0 W/m 2,2 C 5,9 C 6,4 km/h (2 Bft) 100 %
06.04.2017 03:30 5,7 C 5,7 C 5,9 C 78 % 1022,5 hPa 0,0 l/m 0,0 km/h (0 Bft) N-NO 22 0 min 0,000 mm 0 W/m 2,2 C 5,7 C 1,6 km/h (1 Bft) 100 %
06.04.2017 03:40 5,4 C 5,4 C 5,6 C 79 % 1022,6 hPa 0,0 l/m 4,8 km/h (1 Bft) N-NW 337 0 min 0,000 mm 0 W/m 2,1 C 5,4 C 19,3 km/h (3 Bft) 90 %
06.04.2017 03:50 5,4 C 5,4 C 5,4 C 79 % 1022,8 hPa 0,0 l/m 3,2 km/h (1 Bft) N-NW 337 0 min 0,000 mm 0 W/m 2,1 C 5,4 C 19,3 km/h (3 Bft) 100 %
06.04.2017 04:00 5,3 C 5,3 C 5,4 C 78 % 1022,7 hPa 0,0 l/m 0,0 km/h (0 Bft) N 0 0 min 0,025 mm 0 W/m 1,8 C 5,3 C 0,0 km/h (0 Bft) 99 %
06.04.2017 04:10 5,2 C 5,1 C 5,3 C 78 % 1022,7 hPa 0,0 l/m 0,0 km/h (0 Bft) N-NW 337 0 min 0,000 mm 0 W/m 1,7 C 5,2 C 4,8 km/h (1 Bft) 98 %
06.04.2017 04:20 4,9 C 4,9 C 5,1 C 77 % 1022,7 hPa 0,0 l/m 1,6 km/h (1 Bft) N-NW 337 0 min 0,000 mm 0 W/m 1,2 C 4,9 C 14,5 km/h (3 Bft) 97 %
06.04.2017 04:30 4,7 C 4,7 C 4,9 C 77 % 1022,9 hPa 0,0 l/m 0,0 km/h (0 Bft) N-NW 337 0 min 0,000 mm 0 W/m 1,0 C 4,7 C 4,8 km/h (1 Bft) 98 %
06.04.2017 04:40 4,4 C 4,4 C 4,7 C 77 % 1022,9 hPa 0,0 l/m 0,0 km/h (0 Bft) N-NW 337 0 min 0,000 mm 0 W/m 0,7 C 4,4 C 1,6 km/h (1 Bft) 97 %
06.04.2017 04:50 4,1 C 4,1 C 4,4 C 78 % 1023,0 hPa 0,0 l/m 0,0 km/h (0 Bft) N 0 0 min 0,000 mm 0 W/m 0,6 C 4,1 C 0,0 km/h (0 Bft) 97 %
06.04.2017 05:00 3,8 C 3,8 C 4,1 C 79 % 1023,0 hPa 0,0 l/m 0,0 km/h (0 Bft) N 0 0 min 0,025 mm 0 W/m 0,5 C 3,8 C 0,0 km/h (0 Bft) 98 %
06.04.2017 05:10 3,5 C 3,5 C 3,8 C 80 % 1023,1 hPa 0,0 l/m 0,0 km/h (0 Bft) N 0 0 min 0,000 mm 0 W/m 0,4 C 3,5 C 0,0 km/h (0 Bft) 98 %
06.04.2017 05:20 3,3 C 3,3 C 3,5 C 80 % 1023,2 hPa 0,0 l/m 0,0 km/h (0 Bft) N 0 0 min 0,000 mm 0 W/m 0,2 C 3,3 C 0,0 km/h (0 Bft) 98 %
06.04.2017 05:30 3,2 C 3,2 C 3,3 C 80 % 1023,2 hPa 0,0 l/m 0,0 km/h (0 Bft) N 0 0 min 0,000 mm 0 W/m 0,1 C 3,2 C 0,0 km/h (0 Bft) 89 %
06.04.2017 05:40 3,2 C 3,2 C 3,3 C 80 % 1023,1 hPa 0,0 l/m 0,0 km/h (0 Bft) N 0 0 min 0,000 mm 0 W/m 0,1 C 3,2 C 0,0 km/h (0 Bft) 97 %
06.04.2017 05:50 3,1 C 3,1 C 3,2 C 80 % 1023,3 hPa 0,0 l/m 0,0 km/h (0 Bft) N 0 0 min 0,000 mm 0 W/m -0,0 C 3,1 C 0,0 km/h (0 Bft) 98 %
06.04.2017 06:00 2,9 C 2,9 C 3,1 C 81 % 1023,2 hPa 0,0 l/m 0,0 km/h (0 Bft) N 0 0 min 0,000 mm 0 W/m -0,0 C 2,9 C 0,0 km/h (0 Bft) 97 %
06.04.2017 06:10 2,9 C 2,8 C 2,9 C 81 % 1023,3 hPa 0,0 l/m 0,0 km/h (0 Bft) N 0 0 min 0,000 mm 0 W/m -0,0 C 2,9 C 0,0 km/h (0 Bft) 98 %
06.04.2017 06:20 2,9 C 2,8 C 2,9 C 81 % 1023,6 hPa 0,0 l/m 0,0 km/h (0 Bft) N 0 0 min 0,000 mm 0 W/m -0,0 C 2,9 C 0,0 km/h (0 Bft) 98 %
06.04.2017 06:30 2,8 C 2,8 C 2,9 C 81 % 1023,6 hPa 0,0 l/m 0,0 km/h (0 Bft) N 0 0 min 0,000 mm 0 W/m -0,1 C 2,8 C 0,0 km/h (0 Bft) 98 %
06.04.2017 06:40 2,7 C 2,7 C 2,8 C 82 % 1023,7 hPa 0,0 l/m 0,0 km/h (0 Bft) N 0 0 min 0,000 mm 0 W/m -0,1 C 2,7 C 0,0 km/h (0 Bft) 97 %
06.04.2017 06:50 2,7 C 2,7 C 2,7 C 83 % 1023,7 hPa 0,0 l/m 0,0 km/h (0 Bft) N 0 0 min 0,000 mm 0 W/m 0,1 C 2,7 C 0,0 km/h (0 Bft) 98 %
06.04.2017 07:00 2,8 C 2,7 C 2,8 C 84 % 1023,8 hPa 0,0 l/m 0,0 km/h (0 Bft) N 0 0 min 0,000 mm 9 W/m 0,4 C 2,8 C 0,0 km/h (0 Bft) 89 %
06.04.2017 07:10 2,9 C 2,8 C 2,9 C 85 % 1023,9 hPa 0,0 l/m 0,0 km/h (0 Bft) N 0 0 min 0,000 mm 14 W/m 0,6 C 2,9 C 0,0 km/h (0 Bft) 97 %
06.04.2017 07:20 3,0 C 2,9 C 3,0 C 85 % 1024,0 hPa 0,0 l/m 0,0 km/h (0 Bft) N 0 0 min 0,000 mm 19 W/m 0,7 C 3,0 C 0,0 km/h (0 Bft) 98 %
06.04.2017 07:30 3,1 C 3,0 C 3,1 C 87 % 1024,2 hPa 0,0 l/m 0,0 km/h (0 Bft) N 0 0 min 0,000 mm 25 W/m 1,2 C 3,1 C 0,0 km/h (0 Bft) 98 %
06.04.2017 07:40 3,3 C 3,1 C 3,3 C 87 % 1024,3 hPa 0,0 l/m 0,0 km/h (0 Bft) N 0 0 min 0,000 mm 25 W/m 1,3 C 3,3 C 0,0 km/h (0 Bft) 98 %
06.04.2017 07:50 3,3 C 3,3 C 3,3 C 86 % 1024,5 hPa 0,0 l/m 0,0 km/h (0 Bft) N 0 0 min 0,000 mm 33 W/m 1,2 C 3,3 C 0,0 km/h (0 Bft) 98 %
06.04.2017 08:00 3,3 C 3,3 C 3,3 C 84 % 1024,6 hPa 0,0 l/m 0,0 km/h (0 Bft) N 0 0 min 0,000 mm 51 W/m 0,9 C 3,3 C 0,0 km/h (0 Bft) 98 %
06.04.2017 08:10 3,3 C 3,3 C 3,3 C 84 % 1024,6 hPa 0,0 l/m 0,0 km/h (0 Bft) N 0 0 min 0,000 mm 51 W/m 0,9 C 3,3 C 0,0 km/h (0 Bft) 97 %
06.04.2017 08:20 3,3 C 3,3 C 3,3 C 84 % 1024,8 hPa 0,0 l/m 0,0 km/h (0 Bft) N 0 0 min 0,000 mm 84 W/m 0,9 C 3,3 C 0,0 km/h (0 Bft) 97 %
06.04.2017 08:30 3,6 C 3,3 C 3,6 C 85 % 1024,8 hPa 0,0 l/m 0,0 km/h (0 Bft) N-NW 337 10 min 0,000 mm 158 W/m 1,3 C 3,6 C 1,6 km/h (1 Bft) 98 %
06.04.2017 08:40 4,4 C 3,6 C 4,4 C 86 % 1024,7 hPa 0,0 l/m 0,0 km/h (0 Bft) N 0 10 min 0,000 mm 264 W/m 2,3 C 4,4 C 0,0 km/h (0 Bft) 98 %
06.04.2017 08:50 5,6 C 4,4 C 5,6 C 82 % 1024,8 hPa 0,0 l/m 1,6 km/h (1 Bft) NW 315 10 min 0,000 mm 297 W/m 2,8 C 5,6 C 8,0 km/h (2 Bft) 89 %
06.04.2017 09:00 6,6 C 5,6 C 6,6 C 77 % 1024,8 hPa 0,0 l/m 0,0 km/h (0 Bft) N-NW 337 10 min 0,076 mm 329 W/m 2,9 C 6,6 C 8,0 km/h (2 Bft) 97 %
06.04.2017 09:10 7,4 C 6,6 C 7,4 C 73 % 1024,7 hPa 0,0 l/m 0,0 km/h (0 Bft) NW 315 10 min 0,000 mm 362 W/m 2,9 C 7,4 C 6,4 km/h (2 Bft) 97 %
06.04.2017 09:20 8,1 C 7,4 C 8,1 C 70 % 1024,8 hPa 0,0 l/m 1,6 km/h (1 Bft) NW 315 10 min 0,000 mm 388 W/m 3,0 C 8,1 C 9,7 km/h (2 Bft) 98 %
06.04.2017 09:30 8,4 C 8,1 C 8,4 C 68 % 1024,8 hPa 0,0 l/m 1,6 km/h (1 Bft) NW 315 10 min 0,000 mm 424 W/m 2,8 C 8,4 C 11,3 km/h (2 Bft) 97 %
06.04.2017 09:40 8,8 C 8,5 C 8,8 C 67 % 1024,9 hPa 0,0 l/m 1,6 km/h (1 Bft) NW 315 10 min 0,000 mm 508 W/m 3,0 C 8,8 C 11,3 km/h (2 Bft) 97 %
06.04.2017 09:50 9,1 C 8,8 C 9,1 C 64 % 1024,8 hPa 0,0 l/m 1,6 km/h (1 Bft) W-NW 292 10 min 0,000 mm 640 W/m 2,7 C 9,1 C 12,9 km/h (3 Bft) 97 %
06.04.2017 10:00 8,7 C 8,7 C 9,1 C 62 % 1024,7 hPa 0,0 l/m 0,0 km/h (0 Bft) N-NW 337 10 min 0,152 mm 218 W/m 1,8 C 8,7 C 6,4 km/h (2 Bft) 98 %
06.04.2017 10:10 8,4 C 8,4 C 8,7 C 66 % 1025,0 hPa 0,0 l/m 3,2 km/h (1 Bft) NW 315 10 min 0,000 mm 234 W/m 2,4 C 8,4 C 11,3 km/h (2 Bft) 98 %
06.04.2017 10:20 8,3 C 8,2 C 8,4 C 66 % 1025,1 hPa 0,0 l/m 6,4 km/h (2 Bft) N-NW 337 10 min 0,000 mm 288 W/m 2,3 C 8,3 C 22,5 km/h (4 Bft) 97 %
06.04.2017 10:30 8,5 C 8,2 C 8,5 C 64 % 1025,1 hPa 0,0 l/m 3,2 km/h (1 Bft) N-NW 337 10 min 0,000 mm 385 W/m 2,1 C 8,5 C 20,9 km/h (4 Bft) 98 %
06.04.2017 10:40 8,6 C 8,5 C 8,6 C 63 % 1025,4 hPa 0,0 l/m 1,6 km/h (1 Bft) N-NW 337 10 min 0,000 mm 327 W/m 2,0 C 8,6 C 16,1 km/h (3 Bft) 97 %
06.04.2017 10:50 8,4 C 8,4 C 8,6 C 64 % 1025,4 hPa 0,0 l/m 3,2 km/h (1 Bft) NW 315 0 min 0,000 mm 148 W/m 2,0 C 8,4 C 11,3 km/h (2 Bft) 98 %
06.04.2017 11:00 8,0 C 8,0 C 8,4 C 65 % 1025,4 hPa 0,0 l/m 4,8 km/h (1 Bft) NW 315 10 min 0,127 mm 200 W/m 1,8 C 8,0 C 19,3 km/h (3 Bft) 97 %
06.04.2017 11:10 7,9 C 7,9 C 8,0 C 63 % 1025,4 hPa 0,0 l/m 3,2 km/h (1 Bft) NW 315 10 min 0,000 mm 214 W/m 1,3 C 7,9 C 11,3 km/h (2 Bft) 98 %
06.04.2017 11:20 7,9 C 7,9 C 7,9 C 65 % 1025,5 hPa 0,0 l/m 3,2 km/h (1 Bft) NW 315 10 min 0,000 mm 209 W/m 1,7 C 7,9 C 9,7 km/h (2 Bft) 98 %
06.04.2017 11:30 7,8 C 7,8 C 7,9 C 64 % 1025,6 hPa 0,0 l/m 1,6 km/h (1 Bft) NW 315 10 min 0,000 mm 158 W/m 1,4 C 7,8 C 9,7 km/h (2 Bft) 97 %
06.04.2017 11:40 7,8 C 7,8 C 7,8 C 66 % 1025,5 hPa 0,0 l/m 0,0 km/h (0 Bft) NW 315 10 min 0,000 mm 236 W/m 1,9 C 7,8 C 6,4 km/h (2 Bft) 98 %
06.04.2017 11:50 8,1 C 7,8 C 8,1 C 63 % 1025,6 hPa 0,0 l/m 1,6 km/h (1 Bft) NW 315 10 min 0,000 mm 297 W/m 1,5 C 8,1 C 8,0 km/h (2 Bft) 97 %
06.04.2017 12:00 8,4 C 8,1 C 8,4 C 64 % 1025,6 hPa 0,0 l/m 1,6 km/h (1 Bft) W-NW 292 10 min 0,102 mm 281 W/m 2,0 C 8,4 C 8,0 km/h (2 Bft) 98 %
06.04.2017 12:10 8,4 C 8,4 C 8,4 C 62 % 1025,6 hPa 0,0 l/m 1,6 km/h (1 Bft) NW 315 10 min 0,000 mm 169 W/m 1,6 C 8,4 C 9,7 km/h (2 Bft) 97 %
06.04.2017 12:20 8,4 C 8,3 C 8,4 C 63 % 1025,6 hPa 0,0 l/m 1,6 km/h (1 Bft) NW 315 10 min 0,000 mm 237 W/m 1,8 C 8,4 C 11,3 km/h (2 Bft) 97 %
06.04.2017 12:30 8,4 C 8,4 C 8,4 C 61 % 1025,7 hPa 0,0 l/m 0,0 km/h (0 Bft) NW 315 10 min 0,000 mm 244 W/m 1,3 C 8,4 C 4,8 km/h (1 Bft) 98 %
06.04.2017 12:40 8,6 C 8,4 C 8,6 C 59 % 1025,6 hPa 0,0 l/m 1,6 km/h (1 Bft) N-NW 337 10 min 0,000 mm 287 W/m 1,0 C 8,6 C 9,7 km/h (2 Bft) 98 %
06.04.2017 12:50 8,8 C 8,6 C 8,8 C 62 % 1025,5 hPa 0,0 l/m 1,6 km/h (1 Bft) NW 315 10 min 0,000 mm 309 W/m 1,9 C 8,8 C 8,0 km/h (2 Bft) 98 %
06.04.2017 13:00 9,1 C 8,8 C 9,1 C 59 % 1025,6 hPa 0,0 l/m 3,2 km/h (1 Bft) NW 315 10 min 0,127 mm 339 W/m 1,5 C 9,1 C 11,3 km/h (2 Bft) 97 %
06.04.2017 13:10 9,3 C 9,1 C 9,3 C 60 % 1025,7 hPa 0,0 l/m 3,2 km/h (1 Bft) NW 315 10 min 0,000 mm 397 W/m 1,9 C 9,3 C 9,7 km/h (2 Bft) 100 %
06.04.2017 13:20 9,4 C 9,3 C 9,4 C 59 % 1025,6 hPa 0,0 l/m 4,8 km/h (1 Bft) NW 315 10 min 0,000 mm 378 W/m 1,8 C 9,4 C 17,7 km/h (3 Bft) 100 %
06.04.2017 13:30 9,5 C 9,4 C 9,5 C 58 % 1025,6 hPa 0,0 l/m 1,6 km/h (1 Bft) NW 315 10 min 0,000 mm 492 W/m 1,7 C 9,5 C 11,3 km/h (2 Bft) 100 %
06.04.2017 13:40 9,7 C 9,4 C 9,7 C 57 % 1025,7 hPa 0,0 l/m 4,8 km/h (1 Bft) NW 315 10 min 0,000 mm 415 W/m 1,6 C 9,7 C 12,9 km/h (3 Bft) 100 %
06.04.2017 13:50 9,7 C 9,7 C 9,8 C 57 % 1025,7 hPa 0,0 l/m 3,2 km/h (1 Bft) NW 315 10 min 0,000 mm 283 W/m 1,6 C 9,7 C 11,3 km/h (2 Bft) 99 %
06.04.2017 14:00 9,8 C 9,7 C 9,8 C 57 % 1025,6 hPa 0,0 l/m 3,2 km/h (1 Bft) NW 315 10 min 0,178 mm 329 W/m 1,7 C 9,8 C 11,3 km/h (2 Bft) 100 %
06.04.2017 14:10 10,0 C 9,8 C 10,0 C 58 % 1025,5 hPa 0,0 l/m 3,2 km/h (1 Bft) W-NW 292 10 min 0,000 mm 376 W/m 2,1 C 10,0 C 14,5 km/h (3 Bft) 100 %
06.04.2017 14:20 10,7 C 10,0 C 10,7 C 58 % 1025,3 hPa 0,0 l/m 0,0 km/h (0 Bft) W-NW 292 10 min 0,000 mm 1078 W/m 2,8 C 10,7 C 4,8 km/h (1 Bft) 100 %
06.04.2017 14:30 10,7 C 10,7 C 10,9 C 53 % 1025,4 hPa 0,0 l/m 0,0 km/h (0 Bft) W-NW 292 10 min 0,000 mm 566 W/m 1,5 C 10,7 C 1,6 km/h (1 Bft) 100 %
06.04.2017 14:40 10,6 C 10,5 C 10,7 C 56 % 1025,3 hPa 0,0 l/m 4,8 km/h (1 Bft) NW 315 10 min 0,000 mm 406 W/m 2,2 C 10,6 C 16,1 km/h (3 Bft) 100 %
06.04.2017 14:50 10,8 C 10,6 C 10,9 C 55 % 1025,3 hPa 0,0 l/m 1,6 km/h (1 Bft) NW 315 10 min 0,000 mm 466 W/m 2,1 C 10,8 C 8,0 km/h (2 Bft) 99 %
06.04.2017 15:00 11,1 C 10,8 C 11,1 C 56 % 1025,2 hPa 0,0 l/m 4,8 km/h (1 Bft) NW 315 10 min 0,254 mm 872 W/m 2,7 C 11,1 C 20,9 km/h (4 Bft) 100 %
06.04.2017 15:10 11,4 C 11,2 C 11,4 C 55 % 1025,2 hPa 0,0 l/m 4,8 km/h (1 Bft) NW 315 10 min 0,000 mm 285 W/m 2,7 C 11,4 C 16,1 km/h (3 Bft) 100 %
06.04.2017 15:20 11,6 C 11,4 C 11,6 C 55 % 1025,1 hPa 0,0 l/m 3,2 km/h (1 Bft) NW 315 10 min 0,000 mm 380 W/m 2,9 C 11,6 C 11,3 km/h (2 Bft) 99 %
06.04.2017 15:30 11,9 C 11,6 C 11,9 C 51 % 1025,1 hPa 0,0 l/m 4,8 km/h (1 Bft) NW 315 10 min 0,000 mm 202 W/m 2,1 C 11,9 C 14,5 km/h (3 Bft) 99 %
06.04.2017 15:40 11,9 C 11,9 C 12,1 C 54 % 1025,0 hPa 0,0 l/m 3,2 km/h (1 Bft) NW 315 10 min 0,000 mm 274 W/m 2,9 C 11,9 C 9,7 km/h (2 Bft) 100 %
06.04.2017 15:50 11,6 C 11,6 C 11,9 C 53 % 1024,9 hPa 0,0 l/m 1,6 km/h (1 Bft) NW 315 10 min 0,000 mm 227 W/m 2,4 C 11,6 C 8,0 km/h (2 Bft) 100 %
06.04.2017 16:00 11,2 C 11,2 C 11,6 C 54 % 1024,8 hPa 0,0 l/m 1,6 km/h (1 Bft) W-NW 292 10 min 0,127 mm 163 W/m 2,2 C 11,2 C 6,4 km/h (2 Bft) 100 %
06.04.2017 16:10 11,1 C 11,0 C 11,2 C 56 % 1024,8 hPa 0,0 l/m 3,2 km/h (1 Bft) W-NW 292 0 min 0,000 mm 151 W/m 2,7 C 11,1 C 11,3 km/h (2 Bft) 99 %
06.04.2017 16:20 11,4 C 11,1 C 11,4 C 54 % 1024,7 hPa 0,0 l/m 4,8 km/h (1 Bft) W-NW 292 10 min 0,000 mm 155 W/m 2,4 C 11,4 C 14,5 km/h (3 Bft) 100 %
06.04.2017 16:30 11,7 C 11,4 C 11,7 C 56 % 1024,7 hPa 0,0 l/m 3,2 km/h (1 Bft) W-SW 247 10 min 0,000 mm 172 W/m 3,2 C 11,7 C 11,3 km/h (2 Bft) 100 %
06.04.2017 16:40 11,7 C 11,7 C 11,8 C 53 % 1024,7 hPa 0,0 l/m 3,2 km/h (1 Bft) W 270 0 min 0,000 mm 132 W/m 2,4 C 11,7 C 16,1 km/h (3 Bft) 100 %
06.04.2017 16:50 11,4 C 11,4 C 11,7 C 53 % 1024,6 hPa 0,0 l/m 1,6 km/h (1 Bft) W-NW 292 0 min 0,000 mm 125 W/m 2,2 C 11,4 C 14,5 km/h (3 Bft) 99 %
06.04.2017 17:00 11,3 C 11,3 C 11,4 C 51 % 1024,6 hPa 0,0 l/m 1,6 km/h (1 Bft) NW 315 0 min 0,076 mm 105 W/m 1,5 C 11,3 C 12,9 km/h (3 Bft) 100 %
06.04.2017 17:10 11,2 C 11,1 C 11,2 C 55 % 1024,6 hPa 0,0 l/m 1,6 km/h (1 Bft) NW 315 0 min 0,000 mm 121 W/m 2,5 C 11,2 C 9,7 km/h (2 Bft) 100 %
06.04.2017 17:20 11,0 C 11,0 C 11,2 C 54 % 1024,6 hPa 0,0 l/m 0,0 km/h (0 Bft) NW 315 0 min 0,000 mm 114 W/m 2,1 C 11,0 C 8,0 km/h (2 Bft) 100 %
06.04.2017 17:30 11,1 C 11,0 C 11,1 C 53 % 1024,6 hPa 0,0 l/m 1,6 km/h (1 Bft) NW 315 0 min 0,000 mm 116 W/m 1,9 C 11,1 C 11,3 km/h (2 Bft) 100 %
06.04.2017 17:40 11,6 C 11,1 C 11,6 C 51 % 1024,7 hPa 0,0 l/m 8,0 km/h (2 Bft) NW 315 0 min 0,000 mm 116 W/m 1,8 C 10,5 C 19,3 km/h (3 Bft) 100 %
06.04.2017 17:50 11,6 C 11,6 C 11,6 C 51 % 1024,6 hPa 0,0 l/m 4,8 km/h (1 Bft) NW 315 0 min 0,000 mm 88 W/m 1,8 C 11,6 C 16,1 km/h (3 Bft) 100 %
06.04.2017 18:00 11,2 C 11,2 C 11,6 C 52 % 1024,6 hPa 0,0 l/m 1,6 km/h (1 Bft) NW 315 0 min 0,076 mm 86 W/m 1,7 C 11,2 C 9,7 km/h (2 Bft) 89 %
06.04.2017 18:10 11,1 C 11,1 C 11,2 C 52 % 1024,3 hPa 0,0 l/m 0,0 km/h (0 Bft) NW 315 0 min 0,000 mm 91 W/m 1,6 C 11,1 C 6,4 km/h (2 Bft) 99 %
06.04.2017 18:20 11,1 C 11,1 C 11,1 C 53 % 1024,2 hPa 0,0 l/m 3,2 km/h (1 Bft) NW 315 0 min 0,000 mm 91 W/m 1,9 C 11,1 C 14,5 km/h (3 Bft) 100 %
06.04.2017 18:30 11,1 C 11,1 C 11,2 C 52 % 1024,3 hPa 0,0 l/m 4,8 km/h (1 Bft) W-NW 292 0 min 0,000 mm 77 W/m 1,6 C 11,1 C 16,1 km/h (3 Bft) 100 %
06.04.2017 18:40 10,8 C 10,8 C 11,1 C 53 % 1024,2 hPa 0,0 l/m 1,6 km/h (1 Bft) W-NW 292 0 min 0,000 mm 69 W/m 1,6 C 10,8 C 12,9 km/h (3 Bft) 100 %
06.04.2017 18:50 10,7 C 10,7 C 10,8 C 52 % 1024,3 hPa 0,0 l/m 1,6 km/h (1 Bft) W-NW 292 0 min 0,000 mm 47 W/m 1,3 C 10,7 C 11,3 km/h (2 Bft) 100 %
06.04.2017 19:00 10,6 C 10,6 C 10,7 C 54 % 1024,3 hPa 0,0 l/m 1,6 km/h (1 Bft) W-NW 292 0 min 0,051 mm 44 W/m 1,7 C 10,6 C 9,7 km/h (2 Bft) 100 %
06.04.2017 19:10 10,4 C 10,4 C 10,6 C 54 % 1024,4 hPa 0,0 l/m 0,0 km/h (0 Bft) W-SW 247 0 min 0,000 mm 42 W/m 1,5 C 10,4 C 8,0 km/h (2 Bft) 100 %
06.04.2017 19:30 10,2 C 10,2 C 10,6 C 55 % 1024,4 hPa 0,0 l/m 1,7 km/h (1 Bft) W-NW 301 0 min 0,000 mm 18 W/m 1,6 C 10,2 C 9,7 km/h (2 Bft) 97 %
06.04.2017 19:40 9,9 C 9,9 C 10,2 C 56 % 1024,5 hPa 0,0 l/m 0,0 km/h (0 Bft) W-NW 296 0 min 0,000 mm 16 W/m 1,5 C 9,9 C 1,6 km/h (1 Bft) 98 %
06.04.2017 19:50 9,6 C 9,6 C 9,9 C 57 % 1024,6 hPa 0,0 l/m 0,0 km/h (0 Bft) W-NW 298 0 min 0,000 mm 11 W/m 1,5 C 9,6 C 1,6 km/h (1 Bft) 98 %
06.04.2017 20:00 9,4 C 9,4 C 9,6 C 57 % 1024,7 hPa 0,0 l/m 0,0 km/h (0 Bft) W-NW 298 0 min 0,000 mm 0 W/m 1,3 C 9,4 C 1,6 km/h (1 Bft) 97 %
06.04.2017 20:10 9,1 C 9,1 C 9,4 C 58 % 1024,6 hPa 0,0 l/m 1,2 km/h (1 Bft) W-NW 298 0 min 0,003 mm 0 W/m 1,3 C 9,1 C 6,4 km/h (2 Bft) 97 %
06.04.2017 20:20 8,8 C 8,8 C 9,1 C 60 % 1024,6 hPa 0,0 l/m 0,0 km/h (0 Bft) W-NW 298 0 min 0,000 mm 0 W/m 1,5 C 8,8 C 0,0 km/h (0 Bft) 97 %
06.04.2017 20:30 8,5 C 8,5 C 8,8 C 61 % 1024,8 hPa 0,0 l/m 0,0 km/h (0 Bft) W-NW 298 0 min 0,000 mm 0 W/m 1,4 C 8,5 C 0,0 km/h (0 Bft) 97 %
06.04.2017 20:40 8,2 C 8,2 C 8,5 C 62 % 1025,0 hPa 0,0 l/m 0,0 km/h (0 Bft) W-NW 298 0 min 0,000 mm 0 W/m 1,4 C 8,2 C 0,0 km/h (0 Bft) 98 %
06.04.2017 20:50 7,8 C 7,8 C 8,2 C 64 % 1025,0 hPa 0,0 l/m 0,0 km/h (0 Bft) W-NW 298 0 min 0,000 mm 0 W/m 1,4 C 7,8 C 0,0 km/h (0 Bft) 89 %
06.04.2017 21:00 7,4 C 7,4 C 7,8 C 64 % 1025,0 hPa 0,0 l/m 0,0 km/h (0 Bft) W-NW 298 0 min 0,000 mm 0 W/m 1,0 C 7,4 C 0,0 km/h (0 Bft) 97 %
06.04.2017 21:10 7,1 C 7,1 C 7,4 C 66 % 1025,1 hPa 0,0 l/m 0,0 km/h (0 Bft) N 0 0 min 0,000 mm 0 W/m 1,2 C 7,1 C 0,0 km/h (0 Bft) 93 %
06.04.2017 21:20 6,9 C 6,9 C 7,1 C 66 % 1025,4 hPa 0,0 l/m 0,0 km/h (0 Bft) N 0 0 min 0,000 mm 0 W/m 1,0 C 6,9 C 0,0 km/h (0 Bft) 100 %
06.04.2017 21:30 6,8 C 6,7 C 6,9 C 66 % 1025,4 hPa 0,0 l/m 0,0 km/h (0 Bft) N 0 0 min 0,000 mm 0 W/m 0,9 C 6,8 C 0,0 km/h (0 Bft) 100 %
06.04.2017 21:40 6,7 C 6,7 C 6,8 C 67 % 1025,3 hPa 0,0 l/m 0,0 km/h (0 Bft) N 0 0 min 0,000 mm 0 W/m 1,0 C 6,7 C 0,0 km/h (0 Bft) 100 %
06.04.2017 21:50 6,7 C 6,7 C 6,7 C 67 % 1025,2 hPa 0,0 l/m 0,0 km/h (0 Bft) W-NW 292 0 min 0,000 mm 0 W/m 1,0 C 6,7 C 1,6 km/h (1 Bft) 100 %
06.04.2017 22:00 6,6 C 6,6 C 6,7 C 67 % 1025,2 hPa 0,0 l/m 0,0 km/h (0 Bft) W-NW 292 0 min 0,025 mm 0 W/m 0,9 C 6,6 C 1,6 km/h (1 Bft) 100 %
06.04.2017 22:10 6,6 C 6,6 C 6,6 C 67 % 1025,1 hPa 0,0 l/m 0,0 km/h (0 Bft) W-NW 292 0 min 0,000 mm 0 W/m 0,9 C 6,6 C 3,2 km/h (1 Bft) 100 %
06.04.2017 22:20 6,6 C 6,6 C 6,6 C 68 % 1025,2 hPa 0,0 l/m 1,6 km/h (1 Bft) W 270 0 min 0,000 mm 0 W/m 1,1 C 6,6 C 6,4 km/h (2 Bft) 100 %
06.04.2017 22:30 6,6 C 6,6 C 6,6 C 68 % 1025,3 hPa 0,0 l/m 0,0 km/h (0 Bft) W 270 0 min 0,000 mm 0 W/m 1,1 C 6,6 C 1,6 km/h (1 Bft) 100 %
06.04.2017 22:40 6,6 C 6,6 C 6,6 C 68 % 1025,3 hPa 0,0 l/m 0,0 km/h (0 Bft) N 0 0 min 0,000 mm 0 W/m 1,1 C 6,6 C 0,0 km/h (0 Bft) 100 %
06.04.2017 22:50 6,4 C 6,4 C 6,6 C 70 % 1025,5 hPa 0,0 l/m 0,0 km/h (0 Bft) N 0 0 min 0,000 mm 0 W/m 1,3 C 6,4 C 0,0 km/h (0 Bft) 100 %
06.04.2017 23:00 6,3 C 6,3 C 6,4 C 71 % 1025,4 hPa 0,0 l/m 0,0 km/h (0 Bft) W 270 0 min 0,025 mm 0 W/m 1,4 C 6,3 C 1,6 km/h (1 Bft) 100 %
06.04.2017 23:10 6,3 C 6,3 C 6,3 C 70 % 1025,4 hPa 0,0 l/m 0,0 km/h (0 Bft) N 0 0 min 0,000 mm 0 W/m 1,2 C 6,3 C 0,0 km/h (0 Bft) 100 %
06.04.2017 23:20 6,3 C 6,3 C 6,3 C 71 % 1025,5 hPa 0,0 l/m 0,0 km/h (0 Bft) N 0 0 min 0,000 mm 0 W/m 1,4 C 6,3 C 0,0 km/h (0 Bft) 100 %
06.04.2017 23:30 6,3 C 6,3 C 6,3 C 71 % 1025,6 hPa 0,0 l/m 0,0 km/h (0 Bft) N 0 0 min 0,000 mm 0 W/m 1,4 C 6,3 C 0,0 km/h (0 Bft) 100 %
06.04.2017 23:40 6,2 C 6,2 C 6,3 C 73 % 1025,7 hPa 0,0 l/m 0,0 km/h (0 Bft) W-NW 292 0 min 0,000 mm 0 W/m 1,7 C 6,2 C 1,6 km/h (1 Bft) 100 %
06.04.2017 23:50 6,2 C 6,2 C 6,2 C 73 % 1025,6 hPa 0,0 l/m 0,0 km/h (0 Bft) N 0 0 min 0,000 mm 0 W/m 1,7 C 6,2 C 0,0 km/h (0 Bft) 100 %
_ Min-Zeit 06:40 06:40 06:50 15:30 00:10 - 01:20 - - - - - 06:30 06:40 04:00 05:30
Minimum _ 2,7 C 2,7 C 2,7 C 51 % 1021,9 hPa - 0,0 km/h (0 Bft) - - - - - -0,1 C 2,7 C 0,0 km/h (0 Bft) 89 %
_ Max-Zeit 15:40 15:40 15:40 07:30 12:30 00:00 17:40 - - 08:30 15:00 14:20 00:00 15:30 10:20 00:00
Maximum _ 12,1 C 11,9 C 12,1 C 87 % 1025,7 hPa 0,0 l/m 8,0 km/h
NW (2 Bft)
- - 10 min 0,254 mm 1078 W/m 4,2 C 11,9 C 22,5 km/h
N-NW (4 Bft)
100 %
Durchschnitt _ 7,6 C 7,5 C 7,7 C 68 % 1024,3 hPa #0,0 l/m 1,4 km/h (1 Bft) NW - #7:50 h #1,549 mm 234 W/m 1,8 C 7,6 C 7,3 km/h (2 Bft) 98 %
PRIVATE WETTERSTATION BILLIGHEIM-ALLFELD - www.neckar-odenwald-wetter.de - Holger Sonntag